Flight Track Log - Related Links

Times and Time Zones

All times are in EDT time to prevent confusion due to time zone crossing. See the SWA2147 flight status page for this flight to view local times or setup timezone preferences in your user account.

Time Position Orientation Groundspeed Altitude Reporting Facility
EDT Latitude Longitude Course Direction KTS MPH feet Rate Location/Type
Mon 10:18:08 PM 41.8167 -87.7000 90° East 223 257 3,000  Level Chicago TRACON
Mon 10:19:36 PM 41.8050 -87.5747 97° East 220 253 6,400 2,779 Climbing Chicago Center
Mon 10:20:37 PM 41.7972 -87.4747 96° East 265 305 9,900 3,148 Climbing Chicago Center
Mon 10:21:38 PM 41.7881 -87.3708 97° East 280 322 12,800 2,459 Climbing Chicago Center
Mon 10:22:39 PM 41.7778 -87.2400 96° East 344 396 14,900 2,459 Climbing Chicago Center
Mon 10:23:00 PM 41.7500 -86.8630 90° East  Level FlightAware Approximate
Mon 10:23:40 PM 41.7647 -87.1014 97° East 371 427 17,800  Level Chicago Center
Mon 10:24:42 PM 41.7633 -86.9569 91° East 388 447 20,300 2,341 Climbing Chicago Center
Mon 10:25:43 PM 41.7642 -86.8058 90° East 403 464 22,600 2,361 Climbing Chicago Center
Mon 10:26:44 PM 41.7647 -86.6361 90° East 417 480 25,100 2,311 Climbing Chicago Center
Mon 10:27:45 PM 41.7667 -86.4800 89° East 422 486 27,300 1,951 Climbing Chicago Center
Mon 10:28:47 PM 41.7697 -86.3203 88° East 428 493 29,100 1,561 Climbing Chicago Center
Mon 10:29:48 PM 41.7961 -86.1597 78° East 444 511 30,500 1,525 Climbing Chicago Center
Mon 10:30:49 PM 41.8233 -85.9972 77° East 446 513 32,200 1,721 Climbing Chicago Center
Mon 10:31:50 PM 41.8639 -85.8419 71° East 444 511 34,000 878 Climbing Chicago Center
Mon 10:32:52 PM 41.9331 -85.7008 57° Northeast 449 517 34,000 585 Level Chicago Center
Mon 10:33:53 PM 42.0092 -85.5497 56° Northeast 444 511 35,200 1,377 Climbing Chicago Center
Mon 10:34:54 PM 42.0772 -85.4172 55° Northeast 436 502 36,800 1,516 Climbing Chicago Center
Mon 10:35:24 PM 42.0972 -85.3328 72° East 413 475 37,500 1,200 Climbing Cleveland Center
Mon 10:36:24 PM 42.0972 -85.1786 90° East 402 463 38,600 584 Climbing Cleveland Center
Mon 10:37:58 PM 42.1064 -84.9608 87° East 409 471 39,000 200 Climbing Chicago Center
Mon 10:38:24 PM 42.1194 -84.8722 79° East 408 470 39,000  Level Cleveland Center
Mon 10:40:00 PM 42.1442 -84.6217 82° East 418 481 39,000  Level Chicago Center
Mon 10:40:24 PM 42.1447 -84.5797 89° East 408 470 39,000  Level Cleveland Center
Mon 10:41:24 PM 42.1603 -84.4267 82° East 408 470 39,000  Level Cleveland Center
Mon 10:42:24 PM 42.1758 -84.2706 82° East 408 470 39,000  Level Cleveland Center
Mon 10:43:24 PM 42.1931 -84.1203 81° East 408 470 39,000  Level Cleveland Center
Mon 10:44:24 PM 42.2083 -83.9642 82° East 408 470 39,000  Level Cleveland Center
Mon 10:45:24 PM 42.2231 -83.8133 82° East 408 470 39,000  Level Cleveland Center
Mon 10:46:24 PM 42.2356 -83.6625 84° East 408 470 39,000  Level Cleveland Center
Mon 10:47:24 PM 42.2522 -83.5036 82° East 413 475 39,000  Level Cleveland Center
Mon 10:48:24 PM 42.2686 -83.3469 82° East 421 484 39,000  Level Cleveland Center
Mon 10:49:24 PM 42.2831 -83.1736 84° East 421 484 39,000  Level Cleveland Center
Mon 10:50:24 PM 42.2967 -83.0197 83° East 421 484 39,000  Level Cleveland Center
Mon 10:51:24 PM 42.3106 -82.8631 83° East 421 484 39,000  Level Cleveland Center
Mon 10:52:24 PM 42.3239 -82.7064 83° East 421 484 39,000  Level Cleveland Center
Mon 10:53:24 PM 42.3369 -82.5550 83° East 421 484 39,000  Level Cleveland Center
Mon 10:54:24 PM 42.3500 -82.4008 83° East 416 479 39,000  Level Cleveland Center
Mon 10:56:24 PM 42.3772 -82.0981 83° East 405 466 39,000  Level Cleveland Center
Mon 10:57:24 PM 42.3894 -81.9467 84° East 405 466 39,000  Level Cleveland Center
Mon 10:58:24 PM 42.4017 -81.7950 84° East 405 466 39,000  Level Cleveland Center
Mon 10:59:24 PM 42.4136 -81.6575 83° East 405 466 39,000  Level Cleveland Center
Mon 11:00:24 PM 42.4231 -81.5028 85° East 405 466 39,000  Level Cleveland Center
Mon 11:01:24 PM 42.4347 -81.3483 84° East 405 466 39,000  Level Cleveland Center
Mon 11:03:24 PM 42.4572 -81.0364 84° East 405 466 39,000  Level Cleveland Center
Mon 11:04:24 PM 42.4703 -80.8647 84° East 410 472 39,000  Level Cleveland Center
Mon 11:05:24 PM 42.4831 -80.7069 84° East 415 478 39,000  Level Cleveland Center
Mon 11:06:24 PM 42.4914 -80.5494 86° East 415 478 39,000  Level Cleveland Center
Mon 11:07:24 PM 42.5017 -80.3917 85° East 420 483 39,000  Level Cleveland Center
Mon 11:08:24 PM 42.5117 -80.2339 85° East 427 491 39,000  Level Cleveland Center
Mon 11:09:24 PM 42.5236 -80.0733 84° East 422 486 39,000  Level Cleveland Center
Mon 11:10:24 PM 42.5356 -79.9294 84° East 422 486 39,000  Level Cleveland Center
Mon 11:11:24 PM 42.5428 -79.7689 86° East 422 486 39,000  Level Cleveland Center
Mon 11:12:24 PM 42.5519 -79.6108 85° East 422 486 39,000  Level Cleveland Center
Mon 11:13:24 PM 42.5631 -79.4528 84° East 422 486 39,000  Level Cleveland Center
Mon 11:14:24 PM 42.5717 -79.2919 86° East 422 486 39,000  Level Cleveland Center
Mon 11:15:24 PM 42.5803 -79.1311 86° East 422 486 39,000  Level Cleveland Center
Mon 11:16:24 PM 42.5886 -78.9700 86° East 427 491 39,000  Level Cleveland Center
Mon 11:17:24 PM 42.5986 -78.8061 85° East 427 491 39,000  Level Cleveland Center
Mon 11:18:24 PM 42.6064 -78.6425 86° East 427 491 39,000  Level Cleveland Center
Mon 11:19:24 PM 42.6142 -78.4786 86° East 427 491 39,000  Level Cleveland Center
Mon 11:20:24 PM 42.6233 -78.3117 86° East 427 491 39,000  Level Cleveland Center
Mon 11:21:24 PM 42.6306 -78.1506 86° East 427 491 39,000  Level Cleveland Center
Mon 11:22:24 PM 42.6375 -77.9867 87° East 427 491 39,000  Level Cleveland Center
Mon 11:23:24 PM 42.6458 -77.8169 86° East 422 486 39,000  Level Cleveland Center
Mon 11:24:24 PM 42.6519 -77.6414 87° East 427 491 39,000  Level Cleveland Center
Mon 11:26:26 PM 42.6653 -77.3033 87° East 443 510 39,000  Level Boston Center
Mon 11:27:26 PM 42.6700 -77.1425 88° East 437 503 39,000  Level Boston Center
Mon 11:28:26 PM 42.6767 -76.9764 87° East 432 497 39,000  Level Boston Center
Mon 11:29:26 PM 42.6811 -76.8100 88° East 432 497 39,000  Level Boston Center
Mon 11:30:26 PM 42.6914 -76.6467 85° East 437 503 39,000  Level Boston Center
Mon 11:31:26 PM 42.7017 -76.4778 85° East 437 503 39,000  Level Boston Center
Mon 11:32:26 PM 42.7119 -76.3089 85° East 442 509 39,000  Level Boston Center
Mon 11:33:26 PM 42.7211 -76.1539 85° East 442 509 39,000  Level Boston Center
Mon 11:34:26 PM 42.7286 -75.9878 86° East 442 509 39,000  Level Boston Center
Mon 11:35:26 PM 42.7358 -75.8183 87° East 442 509 39,000  Level Boston Center
Mon 11:36:26 PM 42.7450 -75.6492 86° East 442 509 39,000  Level Boston Center
Mon 11:37:26 PM 42.7517 -75.4769 87° East 442 509 39,000  Level Boston Center
Mon 11:38:26 PM 42.7603 -75.3078 86° East 442 509 39,000  Level Boston Center
Mon 11:39:26 PM 42.7667 -75.1325 87° East 442 509 39,000  Level Boston Center
Mon 11:40:26 PM 42.7747 -74.9661 86° East 442 509 39,000  Level Boston Center
Mon 11:41:26 PM 42.7803 -74.7994 87° East 442 509 39,000  Level Boston Center
Mon 11:42:26 PM 42.7881 -74.6100 87° East 442 509 39,000  Level Boston Center
Mon 11:43:26 PM 42.7956 -74.4433 86° East 442 509 39,000  Level Boston Center
Mon 11:44:26 PM 42.8003 -74.2739 88° East 442 509 39,000 -750 Level Boston Center
Mon 11:45:26 PM 42.8072 -74.1069 87° East 442 509 37,500 -1,900 Descending Boston Center
Mon 11:46:26 PM 42.8117 -73.9372 88° East 442 509 35,200 -2,250 Descending Boston Center
Mon 11:47:26 PM 42.8156 -73.7733 88° East 442 509 33,000 -2,000 Descending Boston Center
Mon 11:48:26 PM 42.8256 -73.6292 85° East 437 503 31,200 -1,950 Descending Boston Center
Mon 11:49:26 PM 42.8292 -73.4678 88° East 437 503 29,100 -2,000 Descending Boston Center
Mon 11:50:26 PM 42.8347 -73.3150 87° East 420 483 27,200 -1,900 Descending Boston Center
Mon 11:51:26 PM 42.8378 -73.1678 88° East 398 458 25,300 -1,900 Descending Boston Center
Mon 11:52:26 PM 42.8428 -73.0264 87° East 384 442 23,400 -1,900 Descending Boston Center
Mon 11:53:26 PM 42.8436 -72.8761 90° East 379 436 21,500 -1,800 Descending Boston Center
Mon 11:54:26 PM 42.8461 -72.7317 89° East 368 423 19,800 -1,700 Descending Boston Center
Mon 11:55:26 PM 42.8503 -72.6242 87° East 339 390 18,100 -1,650 Descending Boston Center
Mon 11:56:26 PM 42.8525 -72.4994 89° East 327 376 16,500 -1,650 Descending Boston Center
Mon 11:57:26 PM 42.8547 -72.3750 89° East 327 376 14,800 -1,700 Descending Boston Center
Mon 11:58:26 PM 42.8547 -72.2589 90° East 327 376 13,100 -1,750 Descending Boston Center
Mon 11:59:26 PM 42.8586 -72.1286 88° East 322 371 11,300 -1,600 Descending Boston Center
Tue 12:00:26 AM 42.8603 -72.0208 89° East 312 359 9,900 -1,650 Descending Boston Center
Tue 12:01:26 AM 42.8597 -71.9019 90° East 294 338 8,000 -1,700 Descending Boston Center
Tue 12:02:26 AM 42.8614 -71.8056 89° East 283 326 6,500 -1,600 Descending Boston Center
Tue 12:03:26 AM 42.8628 -71.6922 89° East 272 313 4,800 -1,250 Descending Boston Center
Tue 12:04:26 AM 42.8600 -71.6075 93° East 251 289 4,000 -1,150 Descending Boston Center
Tue 12:05:26 AM 42.8697 -71.5194 81° East 231 266 2,500 -1,300 Descending Boston Center
Tue 12:06:26 AM 42.9028 -71.4822 40° Northeast 183 211 1,400 -650 Descending Boston Center
Tue 12:07:26 AM 42.9378 -71.4389 42° Northeast 157 181 1,200 600 Descending Boston Center
Tue 12:08:26 AM 42.9728 -71.3958 42° Northeast 167 192 2,600 1,385 Climbing Boston Center
Tue 12:08:44 AM 42.9833 -71.3667 64° Northeast 194 223 3,000 308 Climbing KA90
Tue 12:09:44 AM 42.9667 -71.3167 114° Southeast 187 215 3,000  Level KA90
Tue 12:10:44 AM 42.9167 -71.3167 180° South 169 194 3,000 -350 Level KA90
Tue 12:11:44 AM 42.8833 -71.3000 160° South 166 191 2,300 -588 Descending KA90
Tue 12:12:26 AM 42.8556 -71.3186 206° Southwest 153 176 2,000 -452 Descending Boston Center
Tue 12:14:50 AM 42.9000 -71.4167 302° West 152 175 900 -458 Descending KA90
Tue 12:16:00 AM 42.9167 -71.4333 289° West  Level FlightAware Approximate
Tue 12:23:00 AM 42.9328 -71.4358 289° West  Level Estimated

Login

Don't have an account? Register now (free) for customized features, flight alerts, and more!